Time;durP1;ratioP1;P1;durP2;ratioP2;P2;SDS_P1;SDS_P2;PMS_P1;PMS_P2;Temp;Humidity;BMP_temperature;BMP_pressure;BME280_temperature;BME280_humidity;BME280_pressure;Samples;Min_cycle;Max_cycle;Signal;HPM_P1;HPM_P2
2022/03/11 00:00:42;;;;;;;9.23;6.68;;;6.50;96.30;;;;;;5051235;28;20067;-76
2022/03/11 00:03:10;;;;;;;9.65;6.47;;;6.40;96.80;;;;;;5068347;28;20051;-76
2022/03/11 00:05:36;;;;;;;10.80;6.15;;;6.40;96.50;;;;;;5068399;28;20036;-76
2022/03/11 00:08:03;;;;;;;12.35;5.63;;;6.30;97.00;;;;;;5068049;28;20037;-76
2022/03/11 00:10:29;;;;;;;10.88;6.50;;;6.30;97.00;;;;;;5055238;28;20032;-76
2022/03/11 00:12:54;;;;;;;10.90;6.82;;;6.20;97.50;;;;;;5034350;28;20079;-76
2022/03/11 00:15:20;;;;;;;8.43;6.30;;;6.20;97.40;;;;;;5071330;28;20076;-76
2022/03/11 00:17:46;;;;;;;10.15;5.93;;;6.20;97.70;;;;;;5072294;28;20283;-76
2022/03/11 00:20:19;;;;;;;7.13;4.75;;;6.10;97.50;;;;;;5055732;28;20037;-76
2022/03/11 00:22:45;;;;;;;13.57;6.15;;;6.10;98.10;;;;;;5055731;28;20052;-76
2022/03/11 00:25:10;;;;;;;9.98;6.40;;;6.00;97.90;;;;;;5055475;28;20043;-76
2022/03/11 00:27:36;;;;;;;9.40;5.90;;;6.00;98.00;;;;;;5055107;28;20442;-77
2022/03/11 00:30:03;;;;;;;8.85;5.68;;;6.10;98.20;;;;;;5030476;28;20043;-76
2022/03/11 00:32:28;;;;;;;9.27;6.30;;;6.00;98.50;;;;;;5052978;28;20094;-75
2022/03/11 00:34:54;;;;;;;9.43;6.28;;;6.00;98.60;;;;;;5072076;28;20048;-76
2022/03/11 00:37:20;;;;;;;11.38;6.45;;;6.00;98.80;;;;;;5055347;28;20043;-76
2022/03/11 00:39:45;;;;;;;11.02;6.30;;;5.90;98.90;;;;;;5054295;28;20117;-75
2022/03/11 00:42:11;;;;;;;9.57;5.80;;;5.90;99.10;;;;;;5072499;28;20052;-76
2022/03/11 00:44:39;;;;;;;10.35;5.95;;;5.90;99.10;;;;;;5072211;28;20056;-76
2022/03/11 00:47:06;;;;;;;9.43;6.63;;;5.80;99.90;;;;;;5071896;28;20115;-75
2022/03/11 00:49:32;;;;;;;;;;;5.80;99.90;;;;;;5032745;28;20112;-75
2022/03/11 00:51:57;;;;;;;8.93;6.22;;;5.80;99.90;;;;;;5052648;28;19916;-75
2022/03/11 00:54:24;;;;;;;9.30;5.97;;;5.70;99.90;;;;;;5071550;28;20040;-76
2022/03/11 00:56:50;;;;;;;12.13;6.25;;;5.70;99.90;;;;;;5073544;28;20491;-75
2022/03/11 00:59:16;;;;;;;11.57;6.30;;;5.70;99.90;;;;;;5071713;28;20044;-76
2022/03/11 01:01:42;;;;;;;8.88;5.72;;;5.60;99.90;;;;;;5073155;28;20113;-76
2022/03/11 01:04:08;;;;;;;10.40;6.28;;;5.60;99.90;;;;;;5072658;28;20036;-76
2022/03/11 01:06:33;;;;;;;10.55;6.75;;;5.50;99.90;;;;;;5054833;28;20045;-76
2022/03/11 01:08:59;;;;;;;9.48;5.90;;;5.50;99.90;;;;;;5051042;28;20045;-75
2022/03/11 01:11:25;;;;;;;10.50;7.00;;;5.50;99.90;;;;;;5064297;28;20036;-76
2022/03/11 01:13:51;;;;;;;9.65;6.03;;;5.50;99.90;;;;;;5051813;28;20821;-76
2022/03/11 01:16:17;;;;;;;11.30;6.25;;;5.40;99.90;;;;;;5066442;28;20062;-76
2022/03/11 01:18:42;;;;;;;8.50;5.85;;;5.40;99.90;;;;;;5070770;28;20452;-76
2022/03/11 01:21:10;;;;;;;10.02;6.35;;;5.40;99.90;;;;;;5068888;28;20052;-76
2022/03/11 01:23:35;;;;;;;10.38;6.60;;;5.40;99.90;;;;;;5053779;28;20041;-76
2022/03/11 01:26:01;;;;;;;8.77;6.28;;;5.40;99.90;;;;;;5054229;28;20475;-75
2022/03/11 01:28:27;;;;;;;10.80;6.73;;;5.30;99.90;;;;;;5053975;28;20052;-79
2022/03/11 01:30:52;;;;;;;10.93;6.27;;;5.30;99.90;;;;;;5071298;28;20374;-79
2022/03/11 01:33:18;;;;;;;12.38;7.22;;;5.30;99.90;;;;;;5060607;28;20293;-79
2022/03/11 01:35:46;;;;;;;11.70;7.47;;;5.20;99.90;;;;;;5056480;28;20391;-79
2022/03/11 01:38:12;;;;;;;11.15;7.53;;;5.20;99.90;;;;;;5040427;28;20101;-79
2022/03/11 01:40:38;;;;;;;10.55;7.60;;;5.10;99.90;;;;;;5080652;28;20047;-80
2022/03/11 01:43:11;;;;;;;10.70;7.15;;;5.10;99.90;;;;;;5060463;28;20389;-79
2022/03/11 01:45:37;;;;;;;15.45;7.60;;;5.10;99.90;;;;;;5072194;28;20051;-79
2022/03/11 01:48:02;;;;;;;11.70;7.80;;;5.00;99.90;;;;;;5054511;28;20350;-79
2022/03/11 01:50:28;;;;;;;14.25;8.10;;;5.00;99.90;;;;;;5052814;28;20082;-79
2022/03/11 01:52:54;;;;;;;12.63;7.85;;;5.00;99.90;;;;;;5071000;28;20044;-79
2022/03/11 01:55:19;;;;;;;14.48;8.00;;;5.00;99.90;;;;;;5071305;28;20468;-79
2022/03/11 01:57:46;;;;;;;11.25;8.02;;;4.90;99.90;;;;;;5058104;28;20115;-79
2022/03/11 02:00:12;;;;;;;;;;;4.90;99.90;;;;;;5061382;28;20127;-80
2022/03/11 02:02:38;;;;;;;12.13;8.23;;;4.90;99.90;;;;;;5074237;28;20364;-79
2022/03/11 02:05:03;;;;;;;13.85;8.63;;;4.80;99.90;;;;;;5071246;28;20036;-80
2022/03/11 02:07:30;;;;;;;13.35;9.15;;;4.80;99.90;;;;;;5051863;28;20040;-79
2022/03/11 02:09:56;;;;;;;15.85;9.15;;;4.80;99.90;;;;;;5058812;28;20498;-79
2022/03/11 02:12:34;;;;;;;13.63;9.07;;;4.80;99.90;;;;;;5073211;28;20392;-80
2022/03/11 02:15:07;;;;;;;16.20;9.77;;;4.80;99.90;;;;;;5072627;28;20448;-79
2022/03/11 02:17:34;;;;;;;15.00;9.18;;;4.70;99.90;;;;;;5055767;28;20040;-80
2022/03/11 02:20:00;;;;;;;15.05;9.63;;;4.70;99.90;;;;;;5056988;28;20495;-79
2022/03/11 02:22:26;;;;;;;15.13;9.48;;;4.60;99.90;;;;;;5072305;28;20044;-79
2022/03/11 02:24:53;;;;;;;16.77;8.65;;;4.60;99.90;;;;;;5038538;28;20036;-78
2022/03/11 02:27:20;;;;;;;14.95;9.55;;;4.50;99.90;;;;;;5053468;28;20044;-79
2022/03/11 02:29:46;;;;;;;15.52;9.68;;;4.50;99.90;;;;;;5055984;28;20041;-79
2022/03/11 02:32:11;;;;;;;14.23;9.93;;;4.40;99.90;;;;;;5070878;28;20036;-77
2022/03/11 02:34:38;;;;;;;16.33;9.98;;;4.40;99.90;;;;;;5053643;28;20418;-79
2022/03/11 02:37:05;;;;;;;14.57;9.80;;;4.40;99.90;;;;;;5074401;28;20085;-79
2022/03/11 02:39:30;;;;;;;15.77;10.40;;;4.40;99.90;;;;;;5053747;28;20048;-79
2022/03/11 02:41:57;;;;;;;17.77;11.10;;;4.40;99.90;;;;;;5070402;28;20119;-79
2022/03/11 02:44:24;;;;;;;19.27;10.38;;;4.40;99.90;;;;;;5057566;28;20048;-79
2022/03/11 02:46:50;;;;;;;16.30;11.13;;;4.30;99.90;;;;;;5070738;28;20048;-80
2022/03/11 02:49:16;;;;;;;16.95;10.70;;;4.30;99.90;;;;;;5071972;28;20029;-78
2022/03/11 02:51:42;;;;;;;17.85;11.13;;;4.30;99.90;;;;;;5035160;28;20381;-79
2022/03/11 02:54:07;;;;;;;20.27;11.60;;;4.30;99.90;;;;;;5074450;28;20051;-78
2022/03/11 02:56:33;;;;;;;16.65;11.15;;;4.30;99.90;;;;;;5069529;28;20431;-79
2022/03/11 02:58:59;;;;;;;17.20;11.30;;;4.20;99.90;;;;;;5049313;28;20055;-76
2022/03/11 03:01:25;;;;;;;17.40;11.85;;;4.20;99.90;;;;;;5040218;28;20041;-76
2022/03/11 03:03:50;;;;;;;19.23;12.15;;;4.20;99.90;;;;;;5068564;28;20049;-76
2022/03/11 03:06:16;;;;;;;18.20;12.02;;;4.20;99.90;;;;;;5051799;28;20078;-75
2022/03/11 03:08:42;;;;;;;20.60;12.10;;;4.10;99.90;;;;;;5055824;28;20089;-80
2022/03/11 03:11:08;;;;;;;19.65;12.43;;;4.10;99.90;;;;;;5054753;28;20081;-78
2022/03/11 03:13:34;;;;;;;19.33;12.52;;;4.20;99.90;;;;;;5069259;28;20041;-78
2022/03/11 03:16:00;;;;;;;24.48;13.25;;;4.20;99.90;;;;;;5069784;28;20456;-79
2022/03/11 03:18:25;;;;;;;20.08;12.82;;;4.20;99.90;;;;;;5049302;28;20091;-79
2022/03/11 03:20:51;;;;;;;22.80;13.70;;;4.20;99.90;;;;;;5070046;28;20399;-78
2022/03/11 03:23:17;;;;;;;18.80;12.38;;;4.20;99.90;;;;;;5059142;28;20036;-79
2022/03/11 03:25:43;;;;;;;20.55;13.15;;;4.10;99.90;;;;;;5068837;28;20044;-78
2022/03/11 03:28:09;;;;;;;19.88;13.73;;;4.10;99.90;;;;;;5052151;28;20032;-79
2022/03/11 03:30:35;;;;;;;21.55;13.75;;;4.10;99.90;;;;;;5056150;28;20055;-78
2022/03/11 03:33:01;;;;;;;20.83;13.40;;;4.10;99.90;;;;;;5055332;28;20472;-79
2022/03/11 03:35:26;;;;;;;20.30;13.55;;;4.10;99.90;;;;;;5071265;28;20119;-78
2022/03/11 03:37:52;;;;;;;23.45;14.00;;;4.10;99.90;;;;;;5072276;28;20136;-78
2022/03/11 03:40:18;;;;;;;25.47;13.30;;;4.20;99.90;;;;;;5075115;28;20036;-78
2022/03/11 03:42:47;;;;;;;21.67;13.85;;;4.10;99.90;;;;;;5070281;28;20305;-79
2022/03/11 03:45:13;;;;;;;21.92;14.05;;;4.10;99.90;;;;;;5053980;28;20067;-79
2022/03/11 03:47:39;;;;;;;22.83;13.40;;;4.00;99.90;;;;;;5069560;28;20352;-78
2022/03/11 03:50:05;;;;;;;29.17;14.30;;;4.00;99.90;;;;;;5071871;28;20054;-79
2022/03/11 03:52:33;;;;;;;23.90;15.07;;;4.00;99.90;;;;;;5052251;28;20041;-78
2022/03/11 03:54:59;;;;;;;23.08;15.15;;;3.90;99.90;;;;;;5015332;28;20067;-79
2022/03/11 03:57:27;;;;;;;22.60;13.90;;;3.90;99.90;;;;;;5070212;28;20076;-79
2022/03/11 03:59:53;;;;;;;24.85;15.15;;;3.90;99.90;;;;;;5069074;28;20036;-78
2022/03/11 04:02:19;;;;;;;21.65;14.23;;;3.90;99.90;;;;;;5070291;28;20140;-78
2022/03/11 04:04:45;;;;;;;23.48;13.70;;;3.90;99.90;;;;;;5013377;28;20123;-78
2022/03/11 04:07:11;;;;;;;23.88;15.30;;;3.80;99.90;;;;;;5023740;28;20135;-79
2022/03/11 04:09:37;;;;;;;23.35;14.18;;;3.80;99.90;;;;;;5070394;28;20040;-78
2022/03/11 04:12:03;;;;;;;23.48;14.98;;;3.90;99.90;;;;;;5052719;28;20068;-79
2022/03/11 04:14:29;;;;;;;26.30;14.93;;;3.90;99.90;;;;;;5072073;28;20459;-78
2022/03/11 04:16:55;;;;;;;23.20;15.20;;;3.90;99.90;;;;;;5068767;28;20154;-79
2022/03/11 04:19:21;;;;;;;23.33;15.75;;;3.90;99.90;;;;;;5069314;28;20040;-78
2022/03/11 04:21:46;;;;;;;21.52;14.43;;;3.90;99.90;;;;;;5067924;28;20202;-78
2022/03/11 04:24:15;;;;;;;23.70;15.35;;;3.90;99.90;;;;;;5052155;28;20047;-79
2022/03/11 04:26:44;;;;;;;23.42;15.50;;;3.80;99.90;;;;;;5067782;28;20110;-79
2022/03/11 04:29:13;;;;;;;23.92;14.80;;;3.80;99.90;;;;;;5068467;28;20047;-78
2022/03/11 04:31:39;;;;;;;25.48;14.82;;;3.70;99.90;;;;;;5068594;28;20040;-79
2022/03/11 04:34:06;;;;;;;25.55;15.35;;;3.70;99.90;;;;;;5068290;28;20049;-79
2022/03/11 04:36:41;;;;;;;24.92;15.93;;;3.70;99.90;;;;;;5049320;28;20041;-79
2022/03/11 04:39:08;;;;;;;21.73;14.43;;;3.60;99.90;;;;;;5069558;28;20406;-79
2022/03/11 04:41:35;;;;;;;25.35;15.82;;;3.60;99.90;;;;;;5050674;28;20044;-79
2022/03/11 04:44:01;;;;;;;26.10;16.52;;;3.50;99.90;;;;;;5068890;28;20049;-79
2022/03/11 04:46:27;;;;;;;25.80;16.23;;;3.60;99.90;;;;;;5072187;28;20046;-79
2022/03/11 04:48:52;;;;;;;24.13;15.60;;;3.60;99.90;;;;;;5070322;28;20032;-79
2022/03/11 04:51:18;;;;;;;26.00;15.55;;;3.50;99.90;;;;;;5051239;28;20041;-79
2022/03/11 04:53:44;;;;;;;23.95;14.98;;;3.50;99.90;;;;;;5067256;28;20044;-79
2022/03/11 04:56:10;;;;;;;22.48;15.15;;;3.50;99.90;;;;;;5091221;28;20032;-79
2022/03/11 04:58:35;;;;;;;24.10;16.55;;;3.40;99.90;;;;;;5070126;28;20108;-79
2022/03/11 05:01:01;;;;;;;28.77;16.00;;;3.40;99.90;;;;;;5078250;28;20051;-79
2022/03/11 05:03:27;;;;;;;28.30;16.40;;;3.40;99.90;;;;;;5068020;28;20279;-79
2022/03/11 05:05:53;;;;;;;26.05;16.58;;;3.40;99.90;;;;;;5091543;28;20119;-79
2022/03/11 05:08:19;;;;;;;24.00;15.73;;;3.40;99.90;;;;;;5084625;28;20036;-79
2022/03/11 05:10:44;;;;;;;24.10;15.33;;;3.40;99.90;;;;;;5054807;28;20064;-79
2022/03/11 05:13:10;;;;;;;26.98;16.00;;;3.40;99.90;;;;;;5075834;28;20040;-79
2022/03/11 05:15:38;;;;;;;25.67;15.98;;;3.40;99.90;;;;;;5057568;28;20044;-79
2022/03/11 05:18:04;;;;;;;22.95;15.45;;;3.40;99.90;;;;;;5055358;28;20040;-79
2022/03/11 05:20:30;;;;;;;25.10;15.50;;;3.30;99.90;;;;;;5054496;28;20045;-79
2022/03/11 05:22:56;;;;;;;23.88;16.00;;;3.30;99.90;;;;;;5076886;28;20364;-79
2022/03/11 05:25:22;;;;;;;23.40;15.15;;;3.30;99.90;;;;;;5061582;28;20036;-79
2022/03/11 05:27:48;;;;;;;27.08;16.15;;;3.20;99.90;;;;;;5077805;28;20740;-79
2022/03/11 05:30:13;;;;;;;27.23;15.75;;;3.30;99.90;;;;;;5058127;28;20037;-78
2022/03/11 05:32:44;;;;;;;26.57;15.93;;;3.30;99.90;;;;;;5039929;28;20053;-79
2022/03/11 05:35:10;;;;;;;24.48;15.65;;;3.20;99.90;;;;;;5039140;28;20294;-78
2022/03/11 05:37:36;;;;;;;;;;;3.30;99.90;;;;;;5071805;28;20105;-79
2022/03/11 05:40:02;;;;;;;28.42;16.27;;;3.30;99.90;;;;;;5074025;28;20414;-79
2022/03/11 05:42:28;;;;;;;;;;;3.30;99.90;;;;;;5066680;28;20384;-79
2022/03/11 05:44:54;;;;;;;26.73;16.02;;;3.30;99.90;;;;;;5070410;28;19924;-79
2022/03/11 05:47:19;;;;;;;26.48;16.58;;;3.30;99.90;;;;;;5072231;28;20131;-79
2022/03/11 05:49:45;;;;;;;27.00;16.05;;;3.40;99.90;;;;;;5054520;28;20134;-80
2022/03/11 05:52:11;;;;;;;25.25;16.23;;;3.40;99.90;;;;;;5070926;28;20044;-79
2022/03/11 05:54:36;;;;;;;24.10;15.88;;;3.30;99.90;;;;;;5054324;28;20044;-79
2022/03/11 05:57:03;;;;;;;25.03;16.00;;;3.30;99.90;;;;;;5057524;28;20116;-80
2022/03/11 05:59:29;;;;;;;25.45;16.45;;;3.30;99.90;;;;;;5054032;28;20302;-80
2022/03/11 06:01:55;;;;;;;27.60;16.38;;;3.30;99.90;;;;;;5070933;28;20140;-80
2022/03/11 06:04:21;;;;;;;23.50;15.88;;;3.30;99.90;;;;;;5070503;28;20102;-80
2022/03/11 06:06:47;;;;;;;27.27;16.45;;;3.30;99.90;;;;;;5074179;28;20488;-79
2022/03/11 06:09:13;;;;;;;25.67;15.82;;;3.30;99.90;;;;;;5053992;28;20055;-79
2022/03/11 06:11:39;;;;;;;25.30;16.60;;;3.20;99.90;;;;;;5062487;28;20052;-76
2022/03/11 06:14:06;;;;;;;27.48;15.85;;;3.20;99.90;;;;;;5063037;28;20052;-78
2022/03/11 06:16:38;;;;;;;26.73;16.60;;;3.20;99.90;;;;;;5067321;28;20047;-78
2022/03/11 06:19:03;;;;;;;26.20;16.10;;;3.20;99.90;;;;;;5049474;28;20040;-79
2022/03/11 06:21:29;;;;;;;26.67;15.18;;;3.20;99.90;;;;;;5055009;28;20044;-79
2022/03/11 06:23:56;;;;;;;28.25;17.30;;;3.20;99.90;;;;;;5070111;28;20036;-79
2022/03/11 06:26:22;;;;;;;23.52;15.13;;;3.20;99.90;;;;;;5037617;28;20076;-79
2022/03/11 06:28:48;;;;;;;23.77;15.13;;;3.10;99.90;;;;;;5072933;28;20111;-80
2022/03/11 06:31:13;;;;;;;24.43;15.90;;;3.10;99.90;;;;;;5053278;28;20140;-80
2022/03/11 06:33:39;;;;;;;18.15;11.52;;;3.10;99.90;;;;;;5069952;28;20064;-81
2022/03/11 06:36:05;;;;;;;23.65;15.02;;;3.10;99.90;;;;;;5047785;28;20048;-81
2022/03/11 06:38:31;;;;;;;24.27;15.27;;;3.10;99.90;;;;;;5069669;28;20063;-80
2022/03/11 06:40:57;;;;;;;24.92;15.70;;;3.10;99.90;;;;;;5045151;28;20158;-80
2022/03/11 06:43:23;;;;;;;26.48;16.77;;;3.20;99.90;;;;;;5055834;28;20060;-80
2022/03/11 06:45:48;;;;;;;26.75;16.08;;;3.20;99.90;;;;;;5067596;28;20059;-80
2022/03/11 06:48:21;;;;;;;20.00;12.23;;;3.20;99.90;;;;;;5067504;28;20032;-80
2022/03/11 06:50:50;;;;;;;25.17;16.05;;;3.20;99.90;;;;;;5060909;28;20055;-78
2022/03/11 06:53:17;;;;;;;23.88;15.23;;;3.20;99.90;;;;;;5049706;28;20039;-80
2022/03/11 06:55:42;;;;;;;;;;;3.30;99.90;;;;;;5035759;28;20033;-80
2022/03/11 06:58:08;;;;;;;25.30;15.45;;;3.30;99.90;;;;;;5052815;28;19916;-80
2022/03/11 07:00:34;;;;;;;23.42;15.20;;;3.30;99.90;;;;;;5056776;28;20047;-80
2022/03/11 07:03:01;;;;;;;26.48;16.50;;;3.30;99.90;;;;;;5051057;28;20043;-79
2022/03/11 07:05:27;;;;;;;22.52;14.63;;;3.40;99.90;;;;;;5065258;28;20386;-79
2022/03/11 07:07:53;;;;;;;26.65;16.00;;;3.40;99.90;;;;;;5065703;28;20081;-80
2022/03/11 07:10:19;;;;;;;26.90;16.53;;;3.40;99.90;;;;;;5049853;28;20040;-79
2022/03/11 07:12:45;;;;;;;23.48;15.35;;;3.50;99.90;;;;;;5054034;28;20052;-79
2022/03/11 07:15:11;;;;;;;25.10;15.60;;;3.50;99.90;;;;;;5057955;28;20044;-79
2022/03/11 07:17:36;;;;;;;23.63;15.18;;;3.60;99.90;;;;;;5032811;28;20116;-79
2022/03/11 07:20:06;;;;;;;23.77;15.05;;;3.60;99.90;;;;;;5035033;28;20049;-78
2022/03/11 07:22:32;;;;;;;21.65;14.85;;;3.60;99.90;;;;;;5052746;28;20368;-79
2022/03/11 07:24:58;;;;;;;24.38;15.10;;;3.70;99.90;;;;;;5068728;28;20098;-79
2022/03/11 07:27:24;;;;;;;25.85;16.50;;;3.80;99.90;;;;;;5073544;28;20040;-79
2022/03/11 07:29:50;;;;;;;23.33;14.85;;;3.80;99.90;;;;;;5052921;28;20040;-79
2022/03/11 07:32:17;;;;;;;23.77;15.90;;;3.90;99.90;;;;;;5072735;28;20184;-79
2022/03/11 07:34:43;;;;;;;29.85;16.83;;;4.00;99.90;;;;;;5072471;28;20039;-80
2022/03/11 07:37:12;;;;;;;22.98;15.15;;;4.20;99.90;;;;;;5074326;28;20139;-79
2022/03/11 07:39:42;;;;;;;22.98;14.70;;;4.40;99.90;;;;;;5070073;28;20131;-79
2022/03/11 07:42:08;;;;;;;24.20;14.68;;;4.50;99.90;;;;;;5067705;28;20086;-79
2022/03/11 07:44:34;;;;;;;26.08;14.95;;;4.70;99.90;;;;;;5069408;28;20060;-76
2022/03/11 07:47:00;;;;;;;24.23;15.30;;;4.80;99.90;;;;;;5051185;28;20032;-76
2022/03/11 07:49:28;;;;;;;23.00;14.68;;;4.90;99.90;;;;;;5068689;28;20483;-77
2022/03/11 07:51:54;;;;;;;25.35;15.23;;;4.90;99.90;;;;;;5051611;28;20492;-77
2022/03/11 07:54:20;;;;;;;26.35;15.73;;;5.00;99.90;;;;;;5072198;28;20123;-77
2022/03/11 07:56:46;;;;;;;21.45;14.90;;;5.00;99.90;;;;;;5055651;28;20479;-75
2022/03/11 07:59:12;;;;;;;25.05;14.70;;;5.10;99.90;;;;;;5051887;28;20395;-75
2022/03/11 08:01:38;;;;;;;21.85;14.35;;;5.20;99.90;;;;;;5069437;28;20041;-77
2022/03/11 08:04:05;;;;;;;24.23;15.80;;;5.30;99.90;;;;;;5056651;28;20044;-75
2022/03/11 08:06:31;;;;;;;21.40;14.57;;;5.40;99.90;;;;;;5051603;28;20044;-75
2022/03/11 08:08:57;;;;;;;22.38;14.85;;;5.50;99.90;;;;;;5069846;28;20548;-75
2022/03/11 08:11:22;;;;;;;22.83;14.38;;;5.50;99.90;;;;;;5035155;28;20047;-75
2022/03/11 08:13:48;;;;;;;21.67;14.43;;;5.60;99.90;;;;;;5076478;28;20114;-76
2022/03/11 08:16:15;;;;;;;22.58;15.13;;;5.70;99.90;;;;;;5052806;28;20467;-76
2022/03/11 08:18:41;;;;;;;;;;;5.70;99.90;;;;;;5071999;28;20067;-76
2022/03/11 08:21:08;;;;;;;23.25;14.43;;;5.70;99.90;;;;;;5035051;28;19920;-77
2022/03/11 08:23:33;;;;;;;21.90;14.13;;;5.70;99.90;;;;;;5032245;28;20044;-76
2022/03/11 08:25:59;;;;;;;25.27;15.52;;;5.70;99.90;;;;;;5052503;28;20479;-77
2022/03/11 08:28:25;;;;;;;23.80;14.35;;;5.70;99.90;;;;;;5050926;28;20048;-77
2022/03/11 08:30:51;;;;;;;20.13;14.93;;;5.60;99.90;;;;;;5073548;28;20372;-77
2022/03/11 08:33:20;;;;;;;22.33;15.25;;;5.70;99.90;;;;;;5055770;28;20127;-79
2022/03/11 08:35:51;;;;;;;20.70;14.13;;;5.70;99.90;;;;;;5055934;28;20044;-79
2022/03/11 08:38:19;;;;;;;26.35;15.05;;;5.70;99.90;;;;;;5085055;28;20495;-80
2022/03/11 08:40:45;;;;;;;20.33;14.35;;;5.80;99.90;;;;;;5055509;28;20047;-79
2022/03/11 08:43:11;;;;;;;24.45;15.32;;;5.70;99.90;;;;;;5053690;28;20092;-79
2022/03/11 08:45:37;;;;;;;21.80;14.98;;;5.70;99.90;;;;;;5046166;28;20043;-79
2022/03/11 08:48:03;;;;;;;24.23;15.20;;;5.80;99.90;;;;;;5037569;28;20033;-79
2022/03/11 08:50:29;;;;;;;23.02;14.98;;;5.90;99.90;;;;;;5074150;28;20150;-79
2022/03/11 08:52:54;;;;;;;23.38;15.65;;;5.90;99.90;;;;;;5055645;28;20036;-79
2022/03/11 08:55:23;;;;;;;23.10;14.20;;;6.00;99.90;;;;;;5076497;28;20471;-79
2022/03/11 08:57:51;;;;;;;21.95;14.75;;;6.10;99.90;;;;;;5071897;28;20068;-78
2022/03/11 09:00:22;;;;;;;22.15;14.23;;;6.20;99.90;;;;;;5059431;28;20036;-79
2022/03/11 09:02:49;;;;;;;19.95;14.63;;;6.20;99.90;;;;;;5050186;28;20040;-79
2022/03/11 09:05:17;;;;;;;20.67;14.38;;;6.30;99.90;;;;;;5049771;28;20044;-79
2022/03/11 09:07:44;;;;;;;19.92;14.38;;;6.40;99.90;;;;;;5064599;28;20083;-79
2022/03/11 09:10:11;;;;;;;20.38;14.00;;;6.50;99.90;;;;;;5077160;28;20051;-79
2022/03/11 09:12:38;;;;;;;22.23;14.60;;;6.50;99.90;;;;;;5058202;28;20483;-80
2022/03/11 09:15:04;;;;;;;;;;;6.60;99.90;;;;;;5072739;28;20478;-79
2022/03/11 09:17:30;;;;;;;20.27;14.35;;;6.60;99.90;;;;;;5065458;28;19936;-78
2022/03/11 09:19:56;;;;;;;22.45;14.85;;;6.60;99.60;;;;;;5030358;28;20055;-79
2022/03/11 09:22:22;;;;;;;19.45;14.32;;;6.70;99.70;;;;;;5055692;28;20039;-79
2022/03/11 09:24:48;;;;;;;23.40;14.80;;;6.80;99.60;;;;;;5059229;28;20036;-79
2022/03/11 09:27:13;;;;;;;25.08;15.05;;;6.80;99.10;;;;;;5071943;28;20119;-79
2022/03/11 09:29:41;;;;;;;20.90;13.90;;;6.80;98.50;;;;;;5078954;28;20055;-80
2022/03/11 09:32:07;;;;;;;24.45;15.15;;;6.90;98.40;;;;;;5073624;28;20051;-79
2022/03/11 09:34:37;;;;;;;20.77;14.20;;;6.90;98.10;;;;;;5077462;28;20043;-79
2022/03/11 09:37:03;;;;;;;20.10;14.15;;;6.90;98.00;;;;;;5071316;28;20051;-79
2022/03/11 09:39:29;;;;;;;21.65;15.13;;;6.90;97.60;;;;;;5081123;28;20055;-78
2022/03/11 09:41:55;;;;;;;19.05;13.35;;;7.00;97.10;;;;;;5054364;28;20032;-79
2022/03/11 09:44:21;;;;;;;20.70;14.07;;;7.10;97.70;;;;;;5071733;28;20044;-78
2022/03/11 09:46:47;;;;;;;23.38;14.05;;;7.20;97.50;;;;;;5071439;28;20521;-79
2022/03/11 09:49:14;;;;;;;21.20;14.75;;;7.40;96.40;;;;;;5051007;28;20029;-79
2022/03/11 09:51:41;;;;;;;23.60;15.05;;;7.40;95.50;;;;;;5054192;28;20059;-78
2022/03/11 09:54:08;;;;;;;21.40;15.18;;;7.50;95.40;;;;;;5056154;28;20057;-78
2022/03/11 09:56:39;;;;;;;23.58;14.25;;;7.50;94.90;;;;;;5070751;28;20044;-78
2022/03/11 09:59:09;;;;;;;22.13;14.23;;;7.50;94.00;;;;;;5071444;28;20117;-79
2022/03/11 10:01:35;;;;;;;20.08;13.65;;;7.50;94.10;;;;;;5071832;28;20055;-79
2022/03/11 10:04:05;;;;;;;20.67;13.90;;;7.60;94.30;;;;;;5054100;28;20037;-78
2022/03/11 10:06:41;;;;;;;20.08;14.10;;;7.70;94.10;;;;;;5068264;28;20041;-79
2022/03/11 10:09:30;;;;;;;24.08;14.35;;;7.80;94.40;;;;;;5049533;28;20391;-79
2022/03/11 10:11:56;;;;;;;20.88;13.88;;;8.00;93.50;;;;;;5070234;28;20052;-79
2022/03/11 10:14:29;;;;;;;;;;;8.00;93.10;;;;;;5054202;28;20033;-78
2022/03/11 10:16:56;;;;;;;19.85;14.13;;;8.10;93.30;;;;;;5073999;28;19927;-77
2022/03/11 10:19:22;;;;;;;19.55;13.85;;;8.10;92.70;;;;;;5054539;28;20119;-78
2022/03/11 10:21:50;;;;;;;;;;;8.10;93.00;;;;;;5070663;28;20134;-78
2022/03/11 10:24:17;;;;;;;;;;;8.20;92.60;;;;;;5054899;28;19989;-78
2022/03/11 10:26:54;;;;;;;20.75;14.15;;;8.20;92.30;;;;;;5070371;28;19916;-78
2022/03/11 10:29:20;;;;;;;;;;;8.30;92.60;;;;;;5072237;28;20044;-78
2022/03/11 10:31:52;;;;;;;23.35;14.77;;;8.40;92.40;;;;;;5071721;28;19959;-78
2022/03/11 10:34:24;;;;;;;23.95;15.32;;;8.40;92.50;;;;;;5069715;28;20095;-76
2022/03/11 10:37:20;;;;;;;20.45;14.07;;;8.50;92.20;;;;;;5070434;28;20329;-76
2022/03/11 10:39:47;;;;;;;20.95;14.85;;;8.60;92.40;;;;;;5066433;28;20105;-76
2022/03/11 10:42:12;;;;;;;;;;;8.80;92.20;;;;;;5069557;28;20115;-76
2022/03/11 10:44:40;;;;;;;19.90;14.20;;;8.90;91.80;;;;;;5069878;28;20457;-76
2022/03/11 10:47:24;;;;;;;17.67;13.80;;;9.00;91.90;;;;;;5054595;28;20431;-76
2022/03/11 10:49:52;;;;;;;21.33;14.45;;;9.10;91.00;;;;;;5071319;28;20098;-75
2022/03/11 10:52:44;;;;;;;19.10;13.82;;;9.30;91.00;;;;;;5060872;28;20046;-76
2022/03/11 10:55:22;;;;;;;22.05;14.40;;;9.50;90.90;;;;;;5069480;28;20080;-76
2022/03/11 10:57:52;;;;;;;20.25;14.50;;;9.70;89.90;;;;;;5051682;28;20048;-75
2022/03/11 11:00:17;;;;;;;21.27;14.60;;;9.90;89.70;;;;;;5065085;28;20037;-76
2022/03/11 11:02:44;;;;;;;20.67;15.05;;;10.10;89.20;;;;;;5063590;28;20048;-76
2022/03/11 11:05:13;;;;;;;19.25;14.10;;;10.10;88.10;;;;;;5068626;28;20400;-76
2022/03/11 11:07:41;;;;;;;16.58;12.90;;;10.20;86.60;;;;;;5052523;28;20456;-75
2022/03/11 11:10:11;;;;;;;21.17;13.23;;;10.40;87.50;;;;;;5065673;28;20040;-75
2022/03/11 11:12:38;;;;;;;18.35;13.20;;;10.60;86.20;;;;;;5069000;28;20052;-76
2022/03/11 11:15:04;;;;;;;20.92;13.38;;;10.70;84.60;;;;;;5068755;28;20040;-75
2022/03/11 11:17:30;;;;;;;;;;;10.60;82.10;;;;;;5049489;28;20094;-75
2022/03/11 11:20:00;;;;;;;17.88;13.50;;;10.60;82.10;;;;;;5067896;28;19995;-75
2022/03/11 11:22:27;;;;;;;20.38;13.65;;;10.70;81.90;;;;;;5054624;28;20171;-75
2022/03/11 11:24:56;;;;;;;20.27;13.73;;;10.70;81.40;;;;;;5065913;28;20123;-75
2022/03/11 11:27:23;;;;;;;20.10;13.63;;;10.80;80.20;;;;;;5067666;28;20044;-75
2022/03/11 11:29:50;;;;;;;18.73;14.10;;;10.90;80.00;;;;;;5051499;28;20058;-75
2022/03/11 11:32:17;;;;;;;18.15;13.10;;;11.00;79.20;;;;;;5051187;28;20040;-76
2022/03/11 11:34:44;;;;;;;18.30;13.10;;;11.40;78.60;;;;;;5078304;28;20040;-76
2022/03/11 11:37:38;;;;;;;19.58;13.60;;;11.40;77.90;;;;;;5053486;28;20178;-76
2022/03/11 11:40:22;;;;;;;19.00;12.93;;;11.30;76.30;;;;;;5067223;28;20039;-75
2022/03/11 11:43:13;;;;;;;17.98;13.30;;;11.20;76.10;;;;;;5074157;28;20051;-73
2022/03/11 11:45:51;;;;;;;19.88;12.98;;;11.40;76.60;;;;;;5051053;28;20146;-76
2022/03/11 11:48:42;;;;;;;21.25;14.20;;;11.40;76.30;;;;;;5071092;28;20040;-79
2022/03/11 11:51:11;;;;;;;18.67;12.93;;;11.30;75.20;;;;;;5052661;28;20084;-82
2022/03/11 11:53:42;;;;;;;19.77;12.95;;;11.50;76.00;;;;;;5067224;28;20121;-80
2022/03/11 11:56:34;;;;;;;20.70;13.65;;;11.70;74.90;;;;;;5071395;28;20074;-79
2022/03/11 11:59:03;;;;;;;17.45;13.80;;;11.60;74.30;;;;;;5071988;28;20071;-82
2022/03/11 12:01:50;;;;;;;18.13;12.57;;;11.60;74.30;;;;;;5053082;28;20055;-81
2022/03/11 12:04:35;;;;;;;18.00;13.00;;;11.60;74.20;;;;;;5053249;28;20041;-81
2022/03/11 12:07:02;;;;;;;17.67;13.45;;;11.90;74.20;;;;;;5064767;28;20375;-81
2022/03/11 12:09:45;;;;;;;19.30;13.50;;;11.60;72.80;;;;;;5069206;28;20036;-81
2022/03/11 12:12:30;;;;;;;20.23;13.75;;;11.60;72.90;;;;;;5053000;28;20480;-80
2022/03/11 12:15:04;;;;;;;16.92;12.82;;;11.70;73.10;;;;;;5053045;28;20446;-81
2022/03/11 12:17:48;;;;;;;17.58;13.88;;;11.80;72.80;;;;;;5052737;28;20045;-82
2022/03/11 12:20:31;;;;;;;16.63;12.52;;;11.80;71.90;;;;;;5053055;28;20533;-80
2022/03/11 12:23:08;;;;;;;16.40;12.48;;;12.20;73.20;;;;;;5069403;28;20112;-80
2022/03/11 12:25:39;;;;;;;18.15;13.15;;;12.30;71.80;;;;;;5052769;28;20045;-81
2022/03/11 12:28:12;;;;;;;17.42;12.75;;;12.30;71.00;;;;;;5069957;28;20032;-81
2022/03/11 12:30:48;;;;;;;17.58;12.23;;;12.20;70.30;;;;;;5050724;28;20079;-81
2022/03/11 12:33:19;;;;;;;20.42;12.73;;;12.20;70.10;;;;;;5074270;28;20095;-81
2022/03/11 12:35:48;;;;;;;15.43;11.52;;;12.20;69.80;;;;;;5066413;28;20455;-81
2022/03/11 12:38:17;;;;;;;15.80;11.68;;;12.30;70.40;;;;;;5069286;28;20033;-80
2022/03/11 12:40:45;;;;;;;17.33;12.57;;;12.50;69.60;;;;;;5070863;28;20047;-80
2022/03/11 12:43:13;;;;;;;15.48;12.38;;;12.50;68.00;;;;;;5075614;28;20177;-80
2022/03/11 12:45:56;;;;;;;16.13;11.50;;;12.50;68.00;;;;;;5069127;28;20709;-81